Time;durP1;ratioP1;P1;durP2;ratioP2;P2;SDS_P1;SDS_P2;PMS_P1;PMS_P2;Temp;Humidity;BMP_temperature;BMP_pressure;BME280_temperature;BME280_humidity;BME280_pressure;Samples;Min_cycle;Max_cycle;Signal;HPM_P1;HPM_P2
2021/11/08 00:01:00;;;;;;;7.27;2.67;;;5.30;1.00;;;;;;5050832;28;20471;-75
2021/11/08 00:03:32;;;;;;;10.00;2.23;;;5.20;1.00;;;;;;5055378;28;20497;-75
2021/11/08 00:06:10;;;;;;;10.97;2.40;;;;;;;;;;5046894;28;20427;-75
2021/11/08 00:08:57;;;;;;;7.00;2.17;;;;;;;;;;5035789;28;20418;-75
2021/11/08 00:11:26;;;;;;;6.30;2.40;;;;;;;;;;5041376;28;20822;-75
2021/11/08 00:13:58;;;;;;;6.90;2.37;;;;;;;;;;5053779;28;20763;-75
2021/11/08 00:16:33;;;;;;;6.15;2.10;;;;;;;;;;5043820;28;20449;-75
2021/11/08 00:22:10;;;;;;;4.40;2.10;;;;;;;;;;5049723;28;20497;-75
2021/11/08 00:24:42;;;;;;;2.77;2.37;;;;;;;;;;5031622;28;20893;-75
2021/11/08 00:27:33;;;;;;;15.63;3.60;;;;;;;;;;5040586;28;20444;-76
2021/11/08 00:30:16;;;;;;;11.70;2.35;;;;;;;;;;5040834;28;20455;-77
2021/11/08 00:32:46;;;;;;;5.87;2.67;;;;;;;;;;5037825;28;20175;-77
2021/11/08 00:35:16;;;;;;;12.03;2.63;;;;;;;;;;5054415;28;20429;-77
2021/11/08 00:37:52;;;;;;;11.55;3.05;;;;;;;;;;5028181;28;20431;-76
2021/11/08 00:40:18;;;;;;;16.30;2.70;;;;;;;;;;5052643;28;20280;-77
2021/11/08 00:42:46;;;;;;;5.27;2.80;;;;;;;;;;5050977;28;20423;-76
2021/11/08 00:45:12;;;;;;;5.45;2.40;;;;;;;;;;5052416;28;20411;-76
2021/11/08 00:47:38;;;;;;;8.02;2.88;;;;;;;;;;5050364;28;20526;-76
2021/11/08 00:50:11;;;;;;;7.18;3.30;;;;;;;;;;5052819;28;20572;-76
2021/11/08 00:52:37;;;;;;;3.78;2.80;;;;;;;;;;5054526;28;20259;-77
2021/11/08 00:55:03;;;;;;;6.95;2.83;;;;;;;;;;5051905;28;20182;-76
2021/11/08 00:57:35;;;;;;;7.43;2.97;;;;;;;;;;5045723;28;20258;-76
2021/11/08 01:00:12;;;;;;;7.85;2.78;;;4.60;1.00;;;;;;5041725;28;20234;-76
2021/11/08 01:02:40;;;;;;;5.47;2.85;;;;;;;;;;5050066;28;20187;-76
2021/11/08 01:05:08;;;;;;;7.20;2.70;;;;;;;;;;5054433;28;20218;-76
2021/11/08 01:07:35;;;;;;;6.60;3.10;;;4.70;1.00;;;;;;5052315;28;20463;-77
2021/11/08 01:10:13;;;;;;;4.85;2.47;;;4.80;1.00;;;;;;5032944;28;20195;-77
2021/11/08 01:12:52;;;;;;;7.70;3.17;;;;;;;;;;5035943;28;20237;-76
2021/11/08 01:15:22;;;;;;;4.63;2.67;;;;;;;;;;5046973;28;20408;-77
2021/11/08 01:17:51;;;;;;;6.00;3.00;;;;;;;;;;5050680;28;20234;-76
2021/11/08 01:20:17;;;;;;;5.23;2.50;;;;;;;;;;5047472;28;20422;-77
2021/11/08 01:22:46;;;;;;;16.77;4.40;;;;;;;;;;5042229;28;20419;-76
2021/11/08 01:25:22;;;;;;;9.07;3.60;;;;;;;;;;5030097;28;20482;-77
2021/11/08 01:27:53;;;;;;;13.17;3.53;;;;;;;;;;5046078;28;20406;-75
2021/11/08 01:30:28;;;;;;;6.03;3.00;;;;;;;;;;5049612;28;20458;-76
2021/11/08 01:33:00;;;;;;;2.10;1.90;;;5.60;1.00;;;;;;5038889;28;20406;-75
2021/11/08 01:35:32;;;;;;;5.30;2.20;;;5.70;1.00;;;;;;5050151;28;20963;-75
2021/11/08 01:38:42;;;;;;;5.17;2.13;;;5.70;1.00;;;;;;5051262;28;20453;-75
2021/11/08 01:40:48;;;;;;;3.00;2.30;;;5.80;1.00;;;;;;5027579;28;20920;-75
2021/11/08 01:43:28;;;;;;;8.23;2.80;;;;;;;;;;5053653;28;20460;-76
2021/11/08 01:45:58;;;;;;;8.13;3.57;;;;;;;;;;5053744;28;20916;-75
2021/11/08 01:48:41;;;;;;;4.73;2.43;;;5.90;1.00;;;;;;5049073;28;20462;-75
2021/11/08 01:51:16;;;;;;;4.30;2.23;;;;;;;;;;5046827;28;20532;-75
2021/11/08 01:53:46;;;;;;;14.77;3.10;;;;;;;;;;5014078;28;20398;-75
2021/11/08 01:56:12;;;;;;;6.07;3.10;;;;;;;;;;5048826;28;20429;-76
2021/11/08 01:58:40;;;;;;;2.83;2.03;;;;;;;;;;5048821;28;20739;-75
2021/11/08 02:01:06;;;;;;;11.00;3.30;;;;;;;;;;5044388;28;20441;-75
2021/11/08 02:03:33;;;;;;;8.33;2.37;;;;;;;;;;5053553;28;20434;-75
2021/11/08 02:06:04;;;;;;;3.93;2.50;;;;;;;;;;5044157;28;20441;-75
2021/11/08 02:08:37;;;;;;;9.00;3.00;;;;;;;;;;5050436;28;20485;-75
2021/11/08 02:11:03;;;;;;;5.33;2.67;;;;;;;;;;5049586;28;20509;-75
2021/11/08 02:13:34;;;;;;;2.70;2.13;;;;;;;;;;5053177;28;20888;-77
2021/11/08 02:16:01;;;;;;;3.80;2.20;;;;;;;;;;5042312;28;20441;-77
2021/11/08 02:18:27;;;;;;;7.60;2.90;;;;;;;;;;5043891;28;20467;-77
2021/11/08 02:20:54;;;;;;;7.47;2.50;;;;;;;;;;5038370;28;20446;-77
2021/11/08 02:23:58;;;;;;;9.37;2.17;;;6.40;1.00;;;;;;5044971;28;20427;-76
2021/11/08 02:26:24;;;;;;;4.10;2.23;;;6.40;1.00;;;;;;5030205;28;20415;-76
2021/11/08 02:28:53;;;;;;;9.03;2.13;;;6.30;1.00;;;;;;5035156;28;20415;-75
2021/11/08 02:31:22;;;;;;;8.80;2.60;;;6.40;1.00;;;;;;5042459;28;20422;-76
2021/11/08 02:33:58;;;;;;;8.73;2.60;;;;;;;;;;5048170;28;20417;-75
2021/11/08 02:36:45;;;;;;;3.90;2.30;;;6.30;1.00;;;;;;5053276;28;20880;-76
2021/11/08 02:39:19;;;;;;;2.27;1.97;;;6.40;1.00;;;;;;5039900;28;20429;-75
2021/11/08 02:41:48;;;;;;;21.37;3.33;;;;;;;;;;5052070;28;20438;-76
2021/11/08 02:44:16;;;;;;;7.63;3.00;;;;;;;;;;5053200;28;20394;-76
2021/11/08 02:46:53;;;;;;;5.83;2.50;;;;;;;;;;5053783;28;20750;-77
2021/11/08 02:49:37;;;;;;;8.30;2.57;;;;;;;;;;5047602;28;20465;-77
2021/11/08 02:52:06;;;;;;;4.00;2.30;;;;;;;;;;5056246;28;20398;-77
2021/11/08 02:54:37;;;;;;;7.50;2.30;;;6.50;1.00;;;;;;5041286;28;20418;-76
2021/11/08 02:57:06;;;;;;;20.73;2.53;;;6.50;1.00;;;;;;5041437;28;20435;-77
2021/11/08 02:59:36;;;;;;;3.33;2.17;;;6.50;1.00;;;;;;5039528;28;20418;-77
2021/11/08 03:02:06;;;;;;;5.87;2.80;;;6.50;1.00;;;;;;5056423;28;20414;-76
2021/11/08 03:04:44;;;;;;;5.57;2.33;;;;;;;;;;5056586;28;20410;-76
2021/11/08 03:07:37;;;;;;;5.43;2.60;;;6.50;1.00;;;;;;5038257;28;20445;-77
2021/11/08 03:10:23;;;;;;;2.20;2.00;;;6.50;1.00;;;;;;5028355;28;20462;-77
2021/11/08 03:12:54;;;;;;;2.40;1.83;;;;;;;;;;5042111;28;20424;-75
2021/11/08 03:15:41;;;;;;;6.67;2.37;;;;;;;;;;5056168;28;20437;-76
2021/11/08 03:18:31;;;;;;;9.50;2.70;;;6.40;1.00;;;;;;5028277;28;20514;-75
2021/11/08 03:20:58;;;;;;;7.90;2.90;;;;;;;;;;5036537;28;20404;-75
2021/11/08 03:23:26;;;;;;;7.80;2.90;;;6.30;1.00;;;;;;5033420;28;20444;-75
2021/11/08 03:26:17;;;;;;;8.67;2.90;;;;;;;;;;5039876;28;20422;-75
2021/11/08 03:28:43;;;;;;;5.53;2.70;;;;;;;;;;5041388;28;20866;-77
2021/11/08 03:31:11;;;;;;;7.07;2.80;;;;;;;;;;5052626;28;20450;-77
2021/11/08 03:33:39;;;;;;;3.93;2.17;;;6.10;1.00;;;;;;5042529;28;20928;-77
2021/11/08 03:36:07;;;;;;;4.60;2.20;;;6.00;1.00;;;;;;5055590;28;20425;-76
2021/11/08 03:38:40;;;;;;;2.60;1.97;;;;;;;;;;5040740;28;20423;-77
2021/11/08 03:41:07;;;;;;;6.97;2.77;;;5.90;1.00;;;;;;5045667;28;20528;-77
2021/11/08 03:43:40;;;;;;;3.13;1.97;;;;;;;;;;5055702;28;20418;-77
2021/11/08 03:46:10;;;;;;;5.13;2.43;;;;;;;;;;5035977;28;20793;-76
2021/11/08 03:48:36;;;;;;;18.70;2.67;;;;;;;;;;5035110;28;20460;-77
2021/11/08 03:51:04;;;;;;;6.87;3.23;;;;;;;;;;5035266;28;20451;-77
2021/11/08 03:53:30;;;;;;;5.90;2.43;;;;;;;;;;5041049;28;20418;-77
2021/11/08 03:56:10;;;;;;;2.63;2.30;;;;;;;;;;5035289;28;20865;-77
2021/11/08 03:58:52;;;;;;;11.00;2.33;;;;;;;;;;5035620;28;20415;-76
2021/11/08 04:01:18;;;;;;;4.03;2.60;;;;;;;;;;5049938;28;20439;-76
2021/11/08 04:03:44;;;;;;;7.13;2.50;;;;;;;;;;5035683;28;20495;-76
2021/11/08 04:06:11;;;;;;;16.53;3.03;;;;;;;;;;5039932;28;20405;-75
2021/11/08 04:08:46;;;;;;;2.40;1.80;;;;;;;;;;5043229;28;20415;-75
2021/11/08 04:11:12;;;;;;;4.63;2.30;;;;;;;;;;5035065;28;20458;-75
2021/11/08 04:13:41;;;;;;;7.53;3.03;;;;;;;;;;5035438;28;20391;-77
2021/11/08 04:16:13;;;;;;;2.83;2.40;;;;;;;;;;5053484;28;20426;-77
2021/11/08 04:18:58;;;;;;;9.50;3.23;;;;;;;;;;5044218;28;20423;-77
2021/11/08 04:21:35;;;;;;;5.67;2.80;;;;;;;;;;5044720;28;20414;-77
2021/11/08 04:24:03;;;;;;;7.37;3.00;;;6.00;1.00;;;;;;5038926;28;20432;-77
2021/11/08 04:26:40;;;;;;;8.97;2.77;;;;;;;;;;5031510;28;20937;-77
2021/11/08 04:29:10;;;;;;;13.77;3.50;;;;;;;;;;5034647;28;20912;-77
2021/11/08 04:32:16;;;;;;;6.20;2.80;;;6.10;1.00;;;;;;5032650;28;20391;-77
2021/11/08 04:34:51;;;;;;;12.33;2.57;;;;;;;;;;5015082;28;20402;-77
2021/11/08 04:43:56;;;;;;;6.63;2.47;;;;;;;;;;4987747;28;20518;-75
2021/11/08 04:49:05;;;;;;;12.87;2.97;;;;;;;;;;4973398;28;20421;-76
2021/11/08 05:31:46;;;;;;;7.90;3.30;;;;;;;;;;4992589;28;20397;-76
2021/11/08 05:34:28;;;;;;;15.67;4.87;;;;;;;;;;5016639;28;20421;-76
2021/11/08 05:36:54;;;;;;;90.73;39.43;;;;;;;;;;5046628;28;20893;-79
2021/11/08 05:39:22;;;;;;;15.33;5.73;;;;;;;;;;5037082;28;20758;-76
2021/11/08 05:41:48;;;;;;;8.13;3.27;;;;;;;;;;5050356;28;20433;-76
2021/11/08 05:44:14;;;;;;;20.03;6.07;;;;;;;;;;5053570;28;20900;-77
2021/11/08 05:46:40;;;;;;;12.23;4.50;;;;;;;;;;5047039;28;20943;-78
2021/11/08 05:49:07;;;;;;;18.77;5.67;;;;;;;;;;5031853;28;20422;-77
2021/11/08 05:51:33;;;;;;;18.93;10.03;;;;;;;;;;5036537;28;20428;-77
2021/11/08 05:53:59;;;;;;;31.23;19.83;;;;;;;;;;5039693;28;20465;-79
